sensor_id;sensor_type;location;lat;lon;timestamp;P1;durP1;ratioP1;P2;durP2;ratioP2
38787;SDS011;24536;45.488;12.238;2024-03-29T00:00:57;8.77;;;7.97;;
38787;SDS011;24536;45.488;12.238;2024-03-29T00:03:25;9.55;;;8.65;;
38787;SDS011;24536;45.488;12.238;2024-03-29T00:05:50;9.57;;;8.68;;
38787;SDS011;24536;45.488;12.238;2024-03-29T00:08:16;8.75;;;7.95;;
38787;SDS011;24536;45.488;12.238;2024-03-29T00:10:42;8.93;;;8.13;;
38787;SDS011;24536;45.488;12.238;2024-03-29T00:13:07;9.32;;;8.52;;
38787;SDS011;24536;45.488;12.238;2024-03-29T00:15:33;10.50;;;9.60;;
38787;SDS011;24536;45.488;12.238;2024-03-29T00:17:59;9.32;;;8.48;;
38787;SDS011;24536;45.488;12.238;2024-03-29T00:20:25;9.70;;;8.80;;
38787;SDS011;24536;45.488;12.238;2024-03-29T00:22:51;9.98;;;8.98;;
38787;SDS011;24536;45.488;12.238;2024-03-29T00:25:16;10.00;;;9.00;;
38787;SDS011;24536;45.488;12.238;2024-03-29T00:27:42;10.15;;;9.15;;
38787;SDS011;24536;45.488;12.238;2024-03-29T00:30:13;9.60;;;8.70;;
38787;SDS011;24536;45.488;12.238;2024-03-29T00:43:25;10.02;;;9.13;;
38787;SDS011;24536;45.488;12.238;2024-03-29T00:45:51;10.27;;;9.15;;
38787;SDS011;24536;45.488;12.238;2024-03-29T00:48:17;10.27;;;9.35;;
38787;SDS011;24536;45.488;12.238;2024-03-29T00:50:44;10.20;;;9.20;;
38787;SDS011;24536;45.488;12.238;2024-03-29T00:53:10;10.50;;;9.40;;
38787;SDS011;24536;45.488;12.238;2024-03-29T00:55:36;9.90;;;9.00;;
38787;SDS011;24536;45.488;12.238;2024-03-29T00:58:02;9.52;;;8.63;;
38787;SDS011;24536;45.488;12.238;2024-03-29T01:00:28;9.85;;;9.00;;
38787;SDS011;24536;45.488;12.238;2024-03-29T01:02:53;10.43;;;9.43;;
38787;SDS011;24536;45.488;12.238;2024-03-29T01:05:19;10.80;;;9.75;;
38787;SDS011;24536;45.488;12.238;2024-03-29T01:07:45;10.68;;;9.68;;
38787;SDS011;24536;45.488;12.238;2024-03-29T01:10:11;11.00;;;10.05;;
38787;SDS011;24536;45.488;12.238;2024-03-29T01:12:37;10.02;;;9.13;;
38787;SDS011;24536;45.488;12.238;2024-03-29T01:15:04;10.77;;;9.77;;
38787;SDS011;24536;45.488;12.238;2024-03-29T01:17:30;10.23;;;9.25;;
38787;SDS011;24536;45.488;12.238;2024-03-29T01:19:56;11.50;;;10.32;;
38787;SDS011;24536;45.488;12.238;2024-03-29T01:22:22;10.55;;;9.55;;
38787;SDS011;24536;45.488;12.238;2024-03-29T01:24:47;11.40;;;10.30;;
38787;SDS011;24536;45.488;12.238;2024-03-29T01:27:13;11.20;;;10.10;;
38787;SDS011;24536;45.488;12.238;2024-03-29T01:29:39;11.45;;;10.32;;
38787;SDS011;24536;45.488;12.238;2024-03-29T01:32:05;11.40;;;10.20;;
38787;SDS011;24536;45.488;12.238;2024-03-29T01:34:31;11.23;;;10.13;;
38787;SDS011;24536;45.488;12.238;2024-03-29T01:36:57;11.60;;;10.50;;
38787;SDS011;24536;45.488;12.238;2024-03-29T01:39:22;11.98;;;10.77;;
38787;SDS011;24536;45.488;12.238;2024-03-29T01:41:53;12.00;;;10.80;;
38787;SDS011;24536;45.488;12.238;2024-03-29T01:44:19;9.68;;;8.77;;
38787;SDS011;24536;45.488;12.238;2024-03-29T01:46:45;10.80;;;9.73;;
38787;SDS011;24536;45.488;12.238;2024-03-29T01:49:12;11.25;;;10.10;;
38787;SDS011;24536;45.488;12.238;2024-03-29T01:51:38;11.57;;;10.48;;
38787;SDS011;24536;45.488;12.238;2024-03-29T01:54:08;12.10;;;10.90;;
38787;SDS011;24536;45.488;12.238;2024-03-29T01:56:35;11.95;;;10.75;;
38787;SDS011;24536;45.488;12.238;2024-03-29T01:59:03;12.93;;;11.63;;
38787;SDS011;24536;45.488;12.238;2024-03-29T02:01:29;12.70;;;11.55;;
38787;SDS011;24536;45.488;12.238;2024-03-29T02:03:56;12.10;;;10.93;;
38787;SDS011;24536;45.488;12.238;2024-03-29T02:06:22;12.82;;;11.52;;
38787;SDS011;24536;45.488;12.238;2024-03-29T02:08:54;12.32;;;11.23;;
38787;SDS011;24536;45.488;12.238;2024-03-29T02:11:20;11.35;;;10.35;;
38787;SDS011;24536;45.488;12.238;2024-03-29T02:13:46;12.90;;;11.60;;
38787;SDS011;24536;45.488;12.238;2024-03-29T02:16:14;13.48;;;12.18;;
38787;SDS011;24536;45.488;12.238;2024-03-29T02:18:40;14.15;;;12.75;;
38787;SDS011;24536;45.488;12.238;2024-03-29T02:21:09;13.93;;;12.52;;
38787;SDS011;24536;45.488;12.238;2024-03-29T02:23:36;13.13;;;11.88;;
38787;SDS011;24536;45.488;12.238;2024-03-29T02:26:05;12.45;;;11.27;;
38787;SDS011;24536;45.488;12.238;2024-03-29T02:28:31;13.70;;;12.30;;
38787;SDS011;24536;45.488;12.238;2024-03-29T02:30:56;14.20;;;12.82;;
38787;SDS011;24536;45.488;12.238;2024-03-29T02:33:22;13.18;;;11.98;;
38787;SDS011;24536;45.488;12.238;2024-03-29T02:35:48;13.65;;;12.35;;
38787;SDS011;24536;45.488;12.238;2024-03-29T02:38:14;13.48;;;12.18;;
38787;SDS011;24536;45.488;12.238;2024-03-29T02:40:39;13.25;;;11.98;;
38787;SDS011;24536;45.488;12.238;2024-03-29T02:43:05;14.30;;;12.90;;
38787;SDS011;24536;45.488;12.238;2024-03-29T02:45:31;14.18;;;12.88;;
38787;SDS011;24536;45.488;12.238;2024-03-29T02:47:57;15.82;;;14.25;;
38787;SDS011;24536;45.488;12.238;2024-03-29T02:50:23;19.05;;;17.05;;
38787;SDS011;24536;45.488;12.238;2024-03-29T02:52:49;16.23;;;14.70;;
38787;SDS011;24536;45.488;12.238;2024-03-29T02:55:14;15.68;;;14.27;;
38787;SDS011;24536;45.488;12.238;2024-03-29T02:57:40;15.05;;;13.65;;
38787;SDS011;24536;45.488;12.238;2024-03-29T03:00:06;14.45;;;13.10;;
38787;SDS011;24536;45.488;12.238;2024-03-29T03:02:40;15.10;;;13.70;;
38787;SDS011;24536;45.488;12.238;2024-03-29T03:05:07;15.32;;;13.93;;
38787;SDS011;24536;45.488;12.238;2024-03-29T03:07:33;16.50;;;14.85;;
38787;SDS011;24536;45.488;12.238;2024-03-29T03:10:18;14.73;;;13.32;;
38787;SDS011;24536;45.488;12.238;2024-03-29T03:13:03;14.82;;;13.32;;
38787;SDS011;24536;45.488;12.238;2024-03-29T03:15:28;15.20;;;13.70;;
38787;SDS011;24536;45.488;12.238;2024-03-29T03:17:55;15.57;;;14.00;;
38787;SDS011;24536;45.488;12.238;2024-03-29T03:20:20;15.40;;;13.88;;
38787;SDS011;24536;45.488;12.238;2024-03-29T03:22:47;15.20;;;13.73;;
38787;SDS011;24536;45.488;12.238;2024-03-29T03:25:16;16.63;;;14.93;;
38787;SDS011;24536;45.488;12.238;2024-03-29T03:27:41;15.55;;;13.95;;
38787;SDS011;24536;45.488;12.238;2024-03-29T03:30:07;16.00;;;14.50;;
38787;SDS011;24536;45.488;12.238;2024-03-29T03:32:33;16.58;;;14.98;;
38787;SDS011;24536;45.488;12.238;2024-03-29T03:34:59;16.70;;;15.10;;
38787;SDS011;24536;45.488;12.238;2024-03-29T03:37:25;16.63;;;14.90;;
38787;SDS011;24536;45.488;12.238;2024-03-29T03:39:50;15.35;;;13.85;;
38787;SDS011;24536;45.488;12.238;2024-03-29T03:42:16;16.52;;;14.82;;
38787;SDS011;24536;45.488;12.238;2024-03-29T03:44:42;16.25;;;14.73;;
38787;SDS011;24536;45.488;12.238;2024-03-29T03:47:08;16.63;;;15.05;;
38787;SDS011;24536;45.488;12.238;2024-03-29T03:49:33;17.02;;;15.30;;
38787;SDS011;24536;45.488;12.238;2024-03-29T03:51:59;17.48;;;15.77;;
38787;SDS011;24536;45.488;12.238;2024-03-29T03:54:25;16.98;;;15.38;;
38787;SDS011;24536;45.488;12.238;2024-03-29T03:56:50;16.17;;;14.43;;
38787;SDS011;24536;45.488;12.238;2024-03-29T03:59:16;17.45;;;15.65;;
38787;SDS011;24536;45.488;12.238;2024-03-29T04:01:42;17.42;;;15.73;;
38787;SDS011;24536;45.488;12.238;2024-03-29T04:04:08;17.10;;;15.30;;
38787;SDS011;24536;45.488;12.238;2024-03-29T04:06:34;16.85;;;15.10;;
38787;SDS011;24536;45.488;12.238;2024-03-29T04:09:00;15.32;;;13.82;;
38787;SDS011;24536;45.488;12.238;2024-03-29T04:11:25;15.93;;;14.30;;
38787;SDS011;24536;45.488;12.238;2024-03-29T04:13:52;16.60;;;15.00;;
38787;SDS011;24536;45.488;12.238;2024-03-29T04:16:18;15.75;;;14.25;;
38787;SDS011;24536;45.488;12.238;2024-03-29T04:18:44;16.05;;;14.45;;
38787;SDS011;24536;45.488;12.238;2024-03-29T04:21:09;17.45;;;15.65;;
38787;SDS011;24536;45.488;12.238;2024-03-29T04:23:36;15.77;;;14.15;;
38787;SDS011;24536;45.488;12.238;2024-03-29T04:26:02;15.60;;;14.10;;
38787;SDS011;24536;45.488;12.238;2024-03-29T04:28:28;15.80;;;14.10;;
38787;SDS011;24536;45.488;12.238;2024-03-29T04:30:54;15.82;;;14.23;;
38787;SDS011;24536;45.488;12.238;2024-03-29T04:33:21;16.10;;;14.45;;
38787;SDS011;24536;45.488;12.238;2024-03-29T04:35:54;16.95;;;15.23;;
38787;SDS011;24536;45.488;12.238;2024-03-29T04:38:21;15.90;;;14.32;;
38787;SDS011;24536;45.488;12.238;2024-03-29T04:40:51;15.68;;;13.93;;
38787;SDS011;24536;45.488;12.238;2024-03-29T04:43:18;15.50;;;14.00;;
38787;SDS011;24536;45.488;12.238;2024-03-29T04:45:46;15.95;;;14.35;;
38787;SDS011;24536;45.488;12.238;2024-03-29T04:48:12;14.77;;;13.45;;
38787;SDS011;24536;45.488;12.238;2024-03-29T04:50:38;16.05;;;14.55;;
38787;SDS011;24536;45.488;12.238;2024-03-29T04:53:04;17.65;;;14.80;;
38787;SDS011;24536;45.488;12.238;2024-03-29T04:55:30;16.50;;;14.90;;
38787;SDS011;24536;45.488;12.238;2024-03-29T04:57:56;18.35;;;14.57;;
38787;SDS011;24536;45.488;12.238;2024-03-29T05:00:21;15.70;;;14.15;;
38787;SDS011;24536;45.488;12.238;2024-03-29T05:02:47;15.27;;;13.77;;
38787;SDS011;24536;45.488;12.238;2024-03-29T05:05:13;15.68;;;14.07;;
38787;SDS011;24536;45.488;12.238;2024-03-29T05:07:39;14.75;;;13.25;;
38787;SDS011;24536;45.488;12.238;2024-03-29T05:10:05;14.93;;;13.27;;
38787;SDS011;24536;45.488;12.238;2024-03-29T05:12:35;15.55;;;13.95;;
38787;SDS011;24536;45.488;12.238;2024-03-29T05:15:01;14.90;;;13.40;;
38787;SDS011;24536;45.488;12.238;2024-03-29T05:17:27;15.27;;;13.68;;
38787;SDS011;24536;45.488;12.238;2024-03-29T05:19:57;15.35;;;13.80;;
38787;SDS011;24536;45.488;12.238;2024-03-29T05:22:22;15.10;;;13.50;;
38787;SDS011;24536;45.488;12.238;2024-03-29T05:24:52;14.75;;;13.27;;
38787;SDS011;24536;45.488;12.238;2024-03-29T05:29:44;14.48;;;12.98;;
38787;SDS011;24536;45.488;12.238;2024-03-29T05:32:10;14.75;;;13.25;;
38787;SDS011;24536;45.488;12.238;2024-03-29T05:34:35;15.90;;;14.20;;
38787;SDS011;24536;45.488;12.238;2024-03-29T05:37:01;14.30;;;12.88;;
38787;SDS011;24536;45.488;12.238;2024-03-29T05:39:27;14.70;;;13.20;;
38787;SDS011;24536;45.488;12.238;2024-03-29T05:41:52;13.82;;;12.43;;
38787;SDS011;24536;45.488;12.238;2024-03-29T05:44:18;15.00;;;13.50;;
38787;SDS011;24536;45.488;12.238;2024-03-29T05:46:44;16.45;;;13.63;;
38787;SDS011;24536;45.488;12.238;2024-03-29T05:49:10;14.43;;;12.93;;
38787;SDS011;24536;45.488;12.238;2024-03-29T05:51:37;16.35;;;14.15;;
38787;SDS011;24536;45.488;12.238;2024-03-29T05:54:02;14.63;;;13.07;;
38787;SDS011;24536;45.488;12.238;2024-03-29T05:56:29;14.27;;;12.77;;
38787;SDS011;24536;45.488;12.238;2024-03-29T05:58:55;14.20;;;12.70;;
38787;SDS011;24536;45.488;12.238;2024-03-29T06:01:21;12.65;;;11.45;;
38787;SDS011;24536;45.488;12.238;2024-03-29T06:03:49;13.43;;;12.05;;
38787;SDS011;24536;45.488;12.238;2024-03-29T06:06:19;13.75;;;12.38;;
38787;SDS011;24536;45.488;12.238;2024-03-29T06:08:49;14.93;;;12.68;;
38787;SDS011;24536;45.488;12.238;2024-03-29T06:11:15;13.52;;;12.23;;
38787;SDS011;24536;45.488;12.238;2024-03-29T06:13:40;13.88;;;12.02;;
38787;SDS011;24536;45.488;12.238;2024-03-29T06:16:21;13.63;;;12.23;;
38787;SDS011;24536;45.488;12.238;2024-03-29T06:19:09;14.57;;;12.82;;
38787;SDS011;24536;45.488;12.238;2024-03-29T06:21:35;15.07;;;13.48;;
38787;SDS011;24536;45.488;12.238;2024-03-29T06:24:08;14.70;;;13.20;;
38787;SDS011;24536;45.488;12.238;2024-03-29T06:26:39;20.13;;;17.02;;
38787;SDS011;24536;45.488;12.238;2024-03-29T06:29:05;14.43;;;12.98;;
38787;SDS011;24536;45.488;12.238;2024-03-29T06:31:31;17.73;;;15.88;;
38787;SDS011;24536;45.488;12.238;2024-03-29T06:33:59;14.98;;;13.48;;
38787;SDS011;24536;45.488;12.238;2024-03-29T06:36:25;16.67;;;14.30;;
38787;SDS011;24536;45.488;12.238;2024-03-29T06:38:51;16.73;;;14.55;;
38787;SDS011;24536;45.488;12.238;2024-03-29T06:41:20;16.35;;;14.65;;
38787;SDS011;24536;45.488;12.238;2024-03-29T06:43:46;19.23;;;15.25;;
38787;SDS011;24536;45.488;12.238;2024-03-29T06:46:12;15.27;;;13.68;;
38787;SDS011;24536;45.488;12.238;2024-03-29T06:48:39;16.55;;;14.75;;
38787;SDS011;24536;45.488;12.238;2024-03-29T06:51:04;16.33;;;14.73;;
38787;SDS011;24536;45.488;12.238;2024-03-29T06:53:30;15.65;;;14.05;;
38787;SDS011;24536;45.488;12.238;2024-03-29T06:55:56;15.60;;;14.00;;
38787;SDS011;24536;45.488;12.238;2024-03-29T06:58:25;19.02;;;17.05;;
38787;SDS011;24536;45.488;12.238;2024-03-29T07:00:50;15.63;;;14.02;;
38787;SDS011;24536;45.488;12.238;2024-03-29T07:03:17;15.45;;;13.85;;
38787;SDS011;24536;45.488;12.238;2024-03-29T07:05:44;16.58;;;14.77;;
38787;SDS011;24536;45.488;12.238;2024-03-29T07:08:11;14.55;;;13.13;;
38787;SDS011;24536;45.488;12.238;2024-03-29T07:10:36;15.63;;;13.82;;
38787;SDS011;24536;45.488;12.238;2024-03-29T07:13:02;15.20;;;13.60;;
38787;SDS011;24536;45.488;12.238;2024-03-29T07:15:28;15.88;;;14.18;;
38787;SDS011;24536;45.488;12.238;2024-03-29T07:17:54;14.40;;;12.88;;
38787;SDS011;24536;45.488;12.238;2024-03-29T07:20:19;15.25;;;13.65;;
38787;SDS011;24536;45.488;12.238;2024-03-29T07:22:47;18.40;;;16.02;;
38787;SDS011;24536;45.488;12.238;2024-03-29T07:25:14;14.63;;;13.13;;
38787;SDS011;24536;45.488;12.238;2024-03-29T07:27:40;16.42;;;14.75;;
38787;SDS011;24536;45.488;12.238;2024-03-29T07:30:06;11.60;;;10.07;;
38787;SDS011;24536;45.488;12.238;2024-03-29T07:32:36;14.05;;;12.70;;
38787;SDS011;24536;45.488;12.238;2024-03-29T07:35:02;15.25;;;13.15;;
38787;SDS011;24536;45.488;12.238;2024-03-29T07:37:37;15.50;;;13.88;;
38787;SDS011;24536;45.488;12.238;2024-03-29T07:40:12;18.27;;;16.17;;
38787;SDS011;24536;45.488;12.238;2024-03-29T07:42:38;15.55;;;13.98;;
38787;SDS011;24536;45.488;12.238;2024-03-29T07:45:04;14.05;;;12.60;;
38787;SDS011;24536;45.488;12.238;2024-03-29T07:47:30;13.10;;;11.63;;
38787;SDS011;24536;45.488;12.238;2024-03-29T07:49:56;13.68;;;12.23;;
38787;SDS011;24536;45.488;12.238;2024-03-29T07:52:22;13.60;;;12.05;;
38787;SDS011;24536;45.488;12.238;2024-03-29T07:54:48;13.27;;;11.88;;
38787;SDS011;24536;45.488;12.238;2024-03-29T07:57:14;13.60;;;11.15;;
38787;SDS011;24536;45.488;12.238;2024-03-29T07:59:41;13.00;;;11.20;;
38787;SDS011;24536;45.488;12.238;2024-03-29T08:02:07;12.23;;;10.93;;
38787;SDS011;24536;45.488;12.238;2024-03-29T08:04:32;12.30;;;11.00;;
38787;SDS011;24536;45.488;12.238;2024-03-29T08:06:59;13.38;;;11.95;;
38787;SDS011;24536;45.488;12.238;2024-03-29T08:09:27;12.10;;;10.93;;
38787;SDS011;24536;45.488;12.238;2024-03-29T08:11:53;11.20;;;9.82;;
38787;SDS011;24536;45.488;12.238;2024-03-29T08:14:19;11.52;;;10.30;;
38787;SDS011;24536;45.488;12.238;2024-03-29T08:16:44;11.27;;;10.05;;
38787;SDS011;24536;45.488;12.238;2024-03-29T08:19:10;11.60;;;9.70;;
38787;SDS011;24536;45.488;12.238;2024-03-29T08:21:36;13.15;;;10.00;;
38787;SDS011;24536;45.488;12.238;2024-03-29T08:24:02;10.38;;;9.27;;
38787;SDS011;24536;45.488;12.238;2024-03-29T08:26:29;10.60;;;9.27;;
38787;SDS011;24536;45.488;12.238;2024-03-29T08:28:55;12.38;;;10.88;;
38787;SDS011;24536;45.488;12.238;2024-03-29T08:31:23;9.75;;;8.75;;
38787;SDS011;24536;45.488;12.238;2024-03-29T08:33:50;10.38;;;8.77;;
38787;SDS011;24536;45.488;12.238;2024-03-29T08:36:17;14.82;;;11.80;;
38787;SDS011;24536;45.488;12.238;2024-03-29T08:38:42;9.50;;;8.48;;
38787;SDS011;24536;45.488;12.238;2024-03-29T08:41:10;11.70;;;9.38;;
38787;SDS011;24536;45.488;12.238;2024-03-29T08:43:36;9.77;;;8.77;;
38787;SDS011;24536;45.488;12.238;2024-03-29T08:46:02;15.63;;;11.18;;
38787;SDS011;24536;45.488;12.238;2024-03-29T08:48:27;9.60;;;8.20;;
38787;SDS011;24536;45.488;12.238;2024-03-29T08:50:53;10.98;;;8.45;;
38787;SDS011;24536;45.488;12.238;2024-03-29T08:53:19;9.07;;;7.25;;
38787;SDS011;24536;45.488;12.238;2024-03-29T08:55:47;9.35;;;6.88;;
38787;SDS011;24536;45.488;12.238;2024-03-29T08:58:16;8.38;;;6.60;;
38787;SDS011;24536;45.488;12.238;2024-03-29T09:00:43;14.00;;;10.23;;
38787;SDS011;24536;45.488;12.238;2024-03-29T09:03:24;11.25;;;7.25;;
38787;SDS011;24536;45.488;12.238;2024-03-29T09:05:50;12.97;;;6.63;;
38787;SDS011;24536;45.488;12.238;2024-03-29T09:08:17;9.43;;;7.38;;
38787;SDS011;24536;45.488;12.238;2024-03-29T09:10:43;9.18;;;6.82;;
38787;SDS011;24536;45.488;12.238;2024-03-29T09:13:09;7.90;;;6.68;;
38787;SDS011;24536;45.488;12.238;2024-03-29T09:15:35;10.95;;;6.80;;
38787;SDS011;24536;45.488;12.238;2024-03-29T09:18:02;11.23;;;6.68;;
38787;SDS011;24536;45.488;12.238;2024-03-29T09:20:35;7.95;;;6.00;;
38787;SDS011;24536;45.488;12.238;2024-03-29T09:23:01;7.07;;;5.75;;
38787;SDS011;24536;45.488;12.238;2024-03-29T09:25:27;9.13;;;6.35;;
38787;SDS011;24536;45.488;12.238;2024-03-29T09:27:52;11.32;;;6.32;;
38787;SDS011;24536;45.488;12.238;2024-03-29T09:30:18;13.43;;;7.82;;
38787;SDS011;24536;45.488;12.238;2024-03-29T09:32:44;10.63;;;5.70;;
38787;SDS011;24536;45.488;12.238;2024-03-29T09:35:13;10.27;;;5.00;;
38787;SDS011;24536;45.488;12.238;2024-03-29T09:37:38;8.13;;;4.88;;
38787;SDS011;24536;45.488;12.238;2024-03-29T09:40:05;7.95;;;4.97;;
38787;SDS011;24536;45.488;12.238;2024-03-29T09:42:32;7.25;;;4.50;;
38787;SDS011;24536;45.488;12.238;2024-03-29T09:44:58;7.35;;;4.72;;
38787;SDS011;24536;45.488;12.238;2024-03-29T09:47:28;7.70;;;4.90;;
38787;SDS011;24536;45.488;12.238;2024-03-29T09:49:55;7.00;;;4.45;;
38787;SDS011;24536;45.488;12.238;2024-03-29T09:52:23;5.68;;;3.95;;
38787;SDS011;24536;45.488;12.238;2024-03-29T09:54:49;7.10;;;4.88;;
38787;SDS011;24536;45.488;12.238;2024-03-29T09:57:14;6.97;;;4.40;;
38787;SDS011;24536;45.488;12.238;2024-03-29T09:59:42;6.63;;;4.13;;
38787;SDS011;24536;45.488;12.238;2024-03-29T10:02:16;7.43;;;4.25;;
38787;SDS011;24536;45.488;12.238;2024-03-29T10:04:42;9.25;;;4.30;;
38787;SDS011;24536;45.488;12.238;2024-03-29T10:07:10;11.95;;;4.88;;
38787;SDS011;24536;45.488;12.238;2024-03-29T10:09:38;9.15;;;4.22;;
38787;SDS011;24536;45.488;12.238;2024-03-29T10:12:04;7.85;;;4.22;;
38787;SDS011;24536;45.488;12.238;2024-03-29T10:14:31;7.18;;;3.83;;
38787;SDS011;24536;45.488;12.238;2024-03-29T10:16:59;5.50;;;3.30;;
38787;SDS011;24536;45.488;12.238;2024-03-29T10:19:25;6.22;;;3.35;;
38787;SDS011;24536;45.488;12.238;2024-03-29T10:21:51;5.88;;;3.47;;
38787;SDS011;24536;45.488;12.238;2024-03-29T10:24:16;6.28;;;3.03;;
38787;SDS011;24536;45.488;12.238;2024-03-29T10:26:43;5.72;;;2.75;;
38787;SDS011;24536;45.488;12.238;2024-03-29T10:29:09;8.98;;;4.70;;
38787;SDS011;24536;45.488;12.238;2024-03-29T10:31:35;7.22;;;3.10;;
38787;SDS011;24536;45.488;12.238;2024-03-29T10:34:04;7.22;;;3.00;;
38787;SDS011;24536;45.488;12.238;2024-03-29T10:36:30;5.80;;;2.40;;
38787;SDS011;24536;45.488;12.238;2024-03-29T10:39:10;5.70;;;2.78;;
38787;SDS011;24536;45.488;12.238;2024-03-29T10:41:38;5.80;;;2.65;;
38787;SDS011;24536;45.488;12.238;2024-03-29T10:44:05;7.32;;;3.13;;
38787;SDS011;24536;45.488;12.238;2024-03-29T10:46:37;4.28;;;2.67;;
38787;SDS011;24536;45.488;12.238;2024-03-29T10:49:05;6.07;;;2.78;;
38787;SDS011;24536;45.488;12.238;2024-03-29T10:51:34;5.47;;;2.85;;
38787;SDS011;24536;45.488;12.238;2024-03-29T10:56:31;6.63;;;2.80;;
38787;SDS011;24536;45.488;12.238;2024-03-29T10:59:00;9.27;;;2.83;;
38787;SDS011;24536;45.488;12.238;2024-03-29T11:01:33;4.50;;;2.10;;
38787;SDS011;24536;45.488;12.238;2024-03-29T11:04:01;7.10;;;2.65;;
38787;SDS011;24536;45.488;12.238;2024-03-29T11:06:35;5.85;;;2.33;;
38787;SDS011;24536;45.488;12.238;2024-03-29T11:09:05;5.88;;;2.80;;
38787;SDS011;24536;45.488;12.238;2024-03-29T11:11:36;4.95;;;2.55;;
38787;SDS011;24536;45.488;12.238;2024-03-29T11:14:07;5.53;;;2.88;;
38787;SDS011;24536;45.488;12.238;2024-03-29T11:16:39;5.47;;;2.45;;
38787;SDS011;24536;45.488;12.238;2024-03-29T11:19:10;8.60;;;3.38;;
38787;SDS011;24536;45.488;12.238;2024-03-29T11:21:38;6.13;;;2.80;;
38787;SDS011;24536;45.488;12.238;2024-03-29T11:24:07;5.72;;;2.67;;
38787;SDS011;24536;45.488;12.238;2024-03-29T11:26:34;6.93;;;3.08;;
38787;SDS011;24536;45.488;12.238;2024-03-29T11:29:00;6.90;;;2.90;;
38787;SDS011;24536;45.488;12.238;2024-03-29T11:31:27;5.18;;;2.80;;
38787;SDS011;24536;45.488;12.238;2024-03-29T11:33:56;4.05;;;2.33;;
38787;SDS011;24536;45.488;12.238;2024-03-29T11:36:23;5.82;;;2.95;;
38787;SDS011;24536;45.488;12.238;2024-03-29T11:38:50;7.03;;;2.60;;
38787;SDS011;24536;45.488;12.238;2024-03-29T11:41:27;5.75;;;2.67;;
38787;SDS011;24536;45.488;12.238;2024-03-29T11:43:54;6.88;;;2.83;;
38787;SDS011;24536;45.488;12.238;2024-03-29T11:46:20;7.80;;;2.80;;
38787;SDS011;24536;45.488;12.238;2024-03-29T11:48:47;6.00;;;2.72;;
38787;SDS011;24536;45.488;12.238;2024-03-29T11:51:17;5.05;;;2.50;;
38787;SDS011;24536;45.488;12.238;2024-03-29T11:53:53;6.20;;;2.58;;
38787;SDS011;24536;45.488;12.238;2024-03-29T11:56:20;5.32;;;2.40;;
38787;SDS011;24536;45.488;12.238;2024-03-29T11:58:47;6.05;;;2.30;;
38787;SDS011;24536;45.488;12.238;2024-03-29T12:01:14;4.75;;;2.50;;
38787;SDS011;24536;45.488;12.238;2024-03-29T12:03:41;5.50;;;2.38;;
38787;SDS011;24536;45.488;12.238;2024-03-29T12:06:08;4.95;;;2.45;;
38787;SDS011;24536;45.488;12.238;2024-03-29T12:08:42;7.32;;;3.17;;
38787;SDS011;24536;45.488;12.238;2024-03-29T12:11:08;5.07;;;2.53;;
38787;SDS011;24536;45.488;12.238;2024-03-29T12:13:38;7.60;;;2.78;;
38787;SDS011;24536;45.488;12.238;2024-03-29T12:16:05;6.95;;;3.15;;
38787;SDS011;24536;45.488;12.238;2024-03-29T12:18:33;6.70;;;2.65;;
38787;SDS011;24536;45.488;12.238;2024-03-29T12:21:00;7.43;;;2.67;;
38787;SDS011;24536;45.488;12.238;2024-03-29T12:23:26;4.25;;;2.20;;
38787;SDS011;24536;45.488;12.238;2024-03-29T12:25:56;7.00;;;3.05;;
38787;SDS011;24536;45.488;12.238;2024-03-29T12:28:23;7.82;;;2.55;;
38787;SDS011;24536;45.488;12.238;2024-03-29T12:30:51;6.07;;;2.38;;
38787;SDS011;24536;45.488;12.238;2024-03-29T12:33:18;5.30;;;2.50;;
38787;SDS011;24536;45.488;12.238;2024-03-29T12:35:45;4.32;;;2.28;;
38787;SDS011;24536;45.488;12.238;2024-03-29T12:38:19;6.00;;;2.40;;
38787;SDS011;24536;45.488;12.238;2024-03-29T12:40:47;3.90;;;1.98;;
38787;SDS011;24536;45.488;12.238;2024-03-29T12:43:13;8.25;;;2.90;;
38787;SDS011;24536;45.488;12.238;2024-03-29T12:45:42;7.00;;;2.70;;
38787;SDS011;24536;45.488;12.238;2024-03-29T12:48:12;7.25;;;2.65;;
38787;SDS011;24536;45.488;12.238;2024-03-29T12:50:42;8.45;;;2.80;;
38787;SDS011;24536;45.488;12.238;2024-03-29T12:53:11;5.55;;;2.22;;
38787;SDS011;24536;45.488;12.238;2024-03-29T12:55:39;7.45;;;2.95;;
38787;SDS011;24536;45.488;12.238;2024-03-29T12:58:07;5.87;;;3.27;;
38787;SDS011;24536;45.488;12.238;2024-03-29T13:00:36;10.00;;;3.47;;
38787;SDS011;24536;45.488;12.238;2024-03-29T13:03:03;5.68;;;2.63;;
38787;SDS011;24536;45.488;12.238;2024-03-29T13:05:30;5.38;;;2.58;;
38787;SDS011;24536;45.488;12.238;2024-03-29T13:08:03;8.40;;;3.30;;
38787;SDS011;24536;45.488;12.238;2024-03-29T13:10:29;5.85;;;2.15;;
38787;SDS011;24536;45.488;12.238;2024-03-29T13:12:56;6.93;;;2.70;;
38787;SDS011;24536;45.488;12.238;2024-03-29T13:15:22;9.93;;;3.40;;
38787;SDS011;24536;45.488;12.238;2024-03-29T13:18:00;5.47;;;2.05;;
38787;SDS011;24536;45.488;12.238;2024-03-29T13:20:27;9.60;;;3.40;;
38787;SDS011;24536;45.488;12.238;2024-03-29T13:22:54;4.45;;;2.40;;
38787;SDS011;24536;45.488;12.238;2024-03-29T13:25:20;6.53;;;2.60;;
38787;SDS011;24536;45.488;12.238;2024-03-29T13:27:47;9.52;;;3.22;;
38787;SDS011;24536;45.488;12.238;2024-03-29T13:30:17;7.90;;;3.08;;
38787;SDS011;24536;45.488;12.238;2024-03-29T13:32:42;8.30;;;2.90;;
38787;SDS011;24536;45.488;12.238;2024-03-29T13:35:11;6.38;;;2.67;;
38787;SDS011;24536;45.488;12.238;2024-03-29T13:37:41;8.00;;;2.38;;
38787;SDS011;24536;45.488;12.238;2024-03-29T13:40:16;4.60;;;2.38;;
38787;SDS011;24536;45.488;12.238;2024-03-29T13:42:46;7.03;;;2.55;;
38787;SDS011;24536;45.488;12.238;2024-03-29T13:45:13;8.20;;;3.33;;
38787;SDS011;24536;45.488;12.238;2024-03-29T13:47:40;4.90;;;2.25;;
38787;SDS011;24536;45.488;12.238;2024-03-29T13:50:07;9.07;;;2.42;;
38787;SDS011;24536;45.488;12.238;2024-03-29T13:52:34;6.43;;;2.33;;
38787;SDS011;24536;45.488;12.238;2024-03-29T13:55:01;7.55;;;2.60;;
38787;SDS011;24536;45.488;12.238;2024-03-29T13:57:28;7.50;;;2.90;;
38787;SDS011;24536;45.488;12.238;2024-03-29T13:59:54;5.10;;;2.15;;
38787;SDS011;24536;45.488;12.238;2024-03-29T14:02:20;6.15;;;2.90;;
38787;SDS011;24536;45.488;12.238;2024-03-29T14:04:48;7.72;;;2.97;;
38787;SDS011;24536;45.488;12.238;2024-03-29T14:07:14;5.85;;;2.33;;
38787;SDS011;24536;45.488;12.238;2024-03-29T14:09:42;7.35;;;2.40;;
38787;SDS011;24536;45.488;12.238;2024-03-29T14:12:08;6.90;;;2.42;;
38787;SDS011;24536;45.488;12.238;2024-03-29T14:14:35;5.50;;;2.35;;
38787;SDS011;24536;45.488;12.238;2024-03-29T14:17:01;6.55;;;2.45;;
38787;SDS011;24536;45.488;12.238;2024-03-29T14:19:38;5.75;;;2.28;;
38787;SDS011;24536;45.488;12.238;2024-03-29T14:22:05;7.10;;;2.47;;
38787;SDS011;24536;45.488;12.238;2024-03-29T14:24:32;10.55;;;3.42;;
38787;SDS011;24536;45.488;12.238;2024-03-29T14:27:04;9.05;;;2.53;;
38787;SDS011;24536;45.488;12.238;2024-03-29T14:29:31;7.35;;;3.05;;
38787;SDS011;24536;45.488;12.238;2024-03-29T14:31:57;5.88;;;2.40;;
38787;SDS011;24536;45.488;12.238;2024-03-29T14:34:23;6.13;;;2.33;;
38787;SDS011;24536;45.488;12.238;2024-03-29T14:36:49;7.05;;;2.75;;